Wawasan Ruby — 3EVU7 — position and weather

sailwx.info

Track history (hours):
 
Tides and Currents Weather Stations Pressure Air Temp Water Temp Dewpoint Dewpoint Depression Visibility Wind Speed Wind Dir Waves Ship Positions

Wawasan Ruby

Last reported at 2015-Jan-29 05:32 UTC. Time now 2015-Jan-29 06:20 UTC.
Position N 32°01' E 120°33'.

Length 146 m; draft 9.5 m.

Type: Tanker. MMSI: 355619000.

Date/timePositionNaut miles runAvg speedWind from/ knotsBaromVisibWave heightAir tempDewpointWater temp
2015-Jan-29 05:32N 32°01' E 120°33'0 0.1
2015-Jan-29 04:32N 32°01' E 120°33'0 0.0
2015-Jan-29 03:32N 32°01' E 120°33'0 0.0
2015-Jan-29 02:32N 32°01' E 120°33'0 0.0
2015-Jan-29 01:32N 32°01' E 120°33'0 0.0
2015-Jan-29 00:32N 32°01' E 120°33'0 0.1
2015-Jan-28 23:32N 32°01' E 120°33'0 0.1
2015-Jan-28 22:32N 32°01' E 120°33'0 0.0
2015-Jan-28 21:32N 32°01' E 120°33'0 0.0
2015-Jan-28 20:32N 32°01' E 120°33'0 0.0
2015-Jan-28 19:32N 32°01' E 120°33'0 0.0
2015-Jan-28 18:32N 32°01' E 120°33'0 0.0
2015-Jan-28 17:32N 32°01' E 120°33'0 0.0
2015-Jan-28 16:29N 32°01' E 120°33'0 0.1
2015-Jan-28 15:29N 32°01' E 120°33'0 0.1
2015-Jan-28 14:32N 32°01' E 120°33'0 0.0
2015-Jan-28 13:32N 32°01' E 120°33'0 0.0
2015-Jan-28 12:29N 32°01' E 120°33'0 0.1
2015-Jan-28 11:32N 32°01' E 120°33'0 0.1
2015-Jan-28 10:32N 32°01' E 120°33'0 0.0
2015-Jan-28 09:29N 32°01' E 120°33'0 0.0
2015-Jan-28 08:32N 32°01' E 120°33'0 0.0
2015-Jan-28 07:29N 32°01' E 120°33'0 0.0
2015-Jan-28 06:32N 32°01' E 120°33'0 0.0
2015-Jan-28 05:32N 32°01' E 120°33'0 0.1
2015-Jan-28 04:29N 32°01' E 120°33'0 0.1
2015-Jan-28 03:32N 32°01' E 120°33'0 0.1
2015-Jan-28 02:33N 32°01' E 120°33'0 0.0
2015-Jan-28 01:32N 32°01' E 120°33'0 0.0
2015-Jan-28 00:32N 32°01' E 120°33'0 0.1
2015-Jan-27 23:32N 32°01' E 120°33'0 0.2
2015-Jan-27 22:33N 32°01' E 120°33'0 0.1
2015-Jan-27 21:33N 32°01' E 120°33'8 7.8
2015-Jan-27 20:33N 32°00' E 120°42'8 8.4
2015-Jan-27 19:33N 31°58' E 120°51'9 9.1
2015-Jan-27 18:32N 31°49' E 120°55'9 8.8
2015-Jan-27 17:33N 31°46' E 121°04'9 9.0
2015-Jan-27 16:33N 31°40' E 121°12'9 8.6
2015-Jan-27 15:33N 31°34' E 121°19'9 8.7
2015-Jan-27 14:33N 31°28' E 121°27'6 5.5
2015-Jan-27 13:33N 31°25' E 121°32'8 7.6
2015-Jan-27 12:33N 31°21' E 121°40'9 9.0
2015-Jan-27 11:33N 31°17' E 121°49'10 9.6
2015-Jan-27 10:33N 31°15' E 122°00'9 9.2
2015-Jan-27 09:33N 31°11' E 122°10'10 9.6
2015-Jan-27 08:33N 31°06' E 122°20'9 8.6
2015-Jan-27 07:33N 31°07' E 122°30'  
Track history (hours):
 
Tides and Currents Weather Stations Pressure Air Temp Water Temp Dewpoint Dewpoint Depression Visibility Wind Speed Wind Dir Waves Ship Positions

Wawasan Ruby

Last reported at 2015-Jan-29 05:32 UTC. Time now 2015-Jan-29 06:20 UTC.
Position N 32°01' E 120°33'.

Length 146 m; draft 9.5 m.

Type: Tanker. MMSI: 355619000.

Date/timePositionNaut miles runAvg speedWind from/ knotsBaromVisibWave heightAir tempDewpointWater temp
2015-Jan-29 05:32N 32°01' E 120°33'0 0.1
2015-Jan-29 04:32N 32°01' E 120°33'0 0.0
2015-Jan-29 03:32N 32°01' E 120°33'0 0.0
2015-Jan-29 02:32N 32°01' E 120°33'0 0.0
2015-Jan-29 01:32N 32°01' E 120°33'0 0.0
2015-Jan-29 00:32N 32°01' E 120°33'0 0.1
2015-Jan-28 23:32N 32°01' E 120°33'0 0.1
2015-Jan-28 22:32N 32°01' E 120°33'0 0.0
2015-Jan-28 21:32N 32°01' E 120°33'0 0.0
2015-Jan-28 20:32N 32°01' E 120°33'0 0.0
2015-Jan-28 19:32N 32°01' E 120°33'0 0.0
2015-Jan-28 18:32N 32°01' E 120°33'0 0.0
2015-Jan-28 17:32N 32°01' E 120°33'0 0.0
2015-Jan-28 16:29N 32°01' E 120°33'0 0.1
2015-Jan-28 15:29N 32°01' E 120°33'0 0.1
2015-Jan-28 14:32N 32°01' E 120°33'0 0.0
2015-Jan-28 13:32N 32°01' E 120°33'0 0.0
2015-Jan-28 12:29N 32°01' E 120°33'0 0.1
2015-Jan-28 11:32N 32°01' E 120°33'0 0.1
2015-Jan-28 10:32N 32°01' E 120°33'0 0.0
2015-Jan-28 09:29N 32°01' E 120°33'0 0.0
2015-Jan-28 08:32N 32°01' E 120°33'0 0.0
2015-Jan-28 07:29N 32°01' E 120°33'0 0.0
2015-Jan-28 06:32N 32°01' E 120°33'0 0.0
2015-Jan-28 05:32N 32°01' E 120°33'0 0.1
2015-Jan-28 04:29N 32°01' E 120°33'0 0.1
2015-Jan-28 03:32N 32°01' E 120°33'0 0.1
2015-Jan-28 02:33N 32°01' E 120°33'0 0.0
2015-Jan-28 01:32N 32°01' E 120°33'0 0.0
2015-Jan-28 00:32N 32°01' E 120°33'0 0.1
2015-Jan-27 23:32N 32°01' E 120°33'0 0.2
2015-Jan-27 22:33N 32°01' E 120°33'0 0.1
2015-Jan-27 21:33N 32°01' E 120°33'8 7.8
2015-Jan-27 20:33N 32°00' E 120°42'8 8.4
2015-Jan-27 19:33N 31°58' E 120°51'9 9.1
2015-Jan-27 18:32N 31°49' E 120°55'9 8.8
2015-Jan-27 17:33N 31°46' E 121°04'9 9.0
2015-Jan-27 16:33N 31°40' E 121°12'9 8.6
2015-Jan-27 15:33N 31°34' E 121°19'9 8.7
2015-Jan-27 14:33N 31°28' E 121°27'6 5.5
2015-Jan-27 13:33N 31°25' E 121°32'8 7.6
2015-Jan-27 12:33N 31°21' E 121°40'9 9.0
2015-Jan-27 11:33N 31°17' E 121°49'10 9.6
2015-Jan-27 10:33N 31°15' E 122°00'9 9.2
2015-Jan-27 09:33N 31°11' E 122°10'10 9.6
2015-Jan-27 08:33N 31°06' E 122°20'9 8.6
2015-Jan-27 07:33N 31°07' E 122°30'  

Dump ship's entire track history